createdAt,value
2018-08-11T00:00:29.168Z,16.30
2018-08-11T00:02:57.732Z,16.30
2018-08-11T00:05:26.621Z,16.30
2018-08-11T00:07:55.761Z,16.30
2018-08-11T00:10:24.389Z,16.30
2018-08-11T00:12:52.913Z,16.20
2018-08-11T00:15:21.786Z,16.20
2018-08-11T00:17:50.358Z,16.20
2018-08-11T00:20:22.457Z,16.30
2018-08-11T00:22:50.990Z,16.20
2018-08-11T00:25:19.558Z,16.00
2018-08-11T00:27:49.549Z,16.00
2018-08-11T00:30:20.100Z,16.00
2018-08-11T00:32:50.145Z,16.00
2018-08-11T00:35:18.714Z,15.80
2018-08-11T00:37:47.203Z,15.80
2018-08-11T00:40:19.186Z,15.80
2018-08-11T00:42:48.929Z,15.80
2018-08-11T00:45:18.124Z,15.80
2018-08-11T00:47:46.883Z,15.70
2018-08-11T01:07:36.485Z,15.30
2018-08-11T01:10:05.964Z,15.20
2018-08-11T01:12:34.490Z,15.20
2018-08-11T01:15:03.089Z,15.20
2018-08-11T01:17:31.564Z,15.10
2018-08-11T01:20:00.164Z,15.10
2018-08-11T01:22:29.349Z,15.10
2018-08-11T01:24:57.949Z,15.10
2018-08-11T01:44:48.307Z,15.30
2018-08-11T01:47:16.917Z,15.30
2018-08-11T01:49:45.640Z,15.20
2018-08-11T01:52:14.195Z,15.20
2018-08-11T01:54:43.250Z,15.30
2018-08-11T01:57:11.649Z,15.30
2018-08-11T01:59:40.845Z,15.30
2018-08-11T02:02:09.438Z,15.30
2018-08-11T02:04:37.925Z,15.40
2018-08-11T02:07:06.695Z,15.50
2018-08-11T02:09:35.237Z,15.40
2018-08-11T02:12:03.799Z,15.40
2018-08-11T02:14:32.801Z,15.30
2018-08-11T02:17:02.045Z,15.30
2018-08-11T02:19:30.802Z,15.30
2018-08-11T02:22:00.103Z,15.20
2018-08-11T02:24:29.366Z,15.20
2018-08-11T02:26:57.910Z,15.10
2018-08-11T02:29:27.262Z,15.10
2018-08-11T02:31:56.604Z,15.10
2018-08-11T02:34:25.255Z,15.20
2018-08-11T02:36:53.854Z,15.20
2018-08-11T02:39:22.433Z,15.20
2018-08-11T02:41:51.035Z,15.20
2018-08-11T02:44:19.566Z,15.10
2018-08-11T02:46:48.921Z,15.10
2018-08-11T02:49:17.408Z,15.20
2018-08-11T02:51:45.910Z,15.10
2018-08-11T02:54:14.410Z,15.10
2018-08-11T02:56:42.948Z,15.00
2018-08-11T02:59:12.534Z,15.00
2018-08-11T03:19:10.439Z,14.80
2018-08-11T03:39:00.092Z,14.80
2018-08-11T03:41:28.621Z,14.90
2018-08-11T04:01:18.206Z,15.00
2018-08-11T04:03:46.704Z,15.20
2018-08-11T04:06:15.886Z,15.10
2018-08-11T04:08:44.653Z,15.10
2018-08-11T04:11:13.212Z,15.10
2018-08-11T04:13:41.935Z,15.10
2018-08-11T04:16:10.431Z,15.10
2018-08-11T04:18:38.957Z,15.10
2018-08-11T04:38:29.189Z,15.50
2018-08-11T04:40:57.834Z,15.50
2018-08-11T04:43:26.310Z,15.50
2018-08-11T04:45:55.692Z,15.40
2018-08-11T04:48:24.330Z,15.60
2018-08-11T04:50:52.905Z,15.50
2018-08-11T04:53:22.614Z,15.60
2018-08-11T04:55:51.203Z,15.60
2018-08-11T04:58:19.826Z,15.60
2018-08-11T05:00:48.301Z,15.60
2018-08-11T05:03:16.979Z,15.70
2018-08-11T05:05:46.152Z,15.80
2018-08-11T05:08:15.502Z,15.70
2018-08-11T05:10:44.614Z,15.80
2018-08-11T05:13:13.182Z,15.80
2018-08-11T05:15:41.725Z,15.90
2018-08-11T05:18:10.402Z,16.00
2018-08-11T05:20:39.598Z,16.00
2018-08-11T05:40:28.110Z,16.10
2018-08-11T06:00:18.784Z,16.10
2018-08-11T06:02:47.386Z,16.20
2018-08-11T06:05:15.964Z,16.30
2018-08-11T06:07:44.529Z,16.30
2018-08-11T06:10:13.245Z,16.50
2018-08-11T06:12:41.709Z,16.50
2018-08-11T06:15:10.261Z,16.70
2018-08-11T06:17:39.344Z,16.80
2018-08-11T06:20:09.373Z,16.70
2018-08-11T06:39:59.877Z,17.20
2018-08-11T06:59:48.862Z,17.70
2018-08-11T07:02:18.044Z,17.80
2018-08-11T07:04:47.513Z,17.80
2018-08-11T07:07:16.658Z,17.80
2018-08-11T07:27:07.568Z,18.00
2018-08-11T07:29:36.219Z,18.10
2018-08-11T07:32:06.041Z,18.10
2018-08-11T07:51:56.533Z,18.50
2018-08-11T07:54:25.040Z,18.40
2018-08-11T08:14:14.522Z,18.70
2018-08-11T08:16:42.986Z,18.70
2018-08-11T08:19:12.292Z,18.80
2018-08-11T08:21:40.910Z,18.90
2018-08-11T08:24:09.913Z,18.90
2018-08-11T08:26:38.755Z,19.00
2018-08-11T08:29:07.222Z,19.00
2018-08-11T08:48:57.461Z,19.50
2018-08-11T08:51:25.983Z,19.60
2018-08-11T08:53:54.439Z,19.70
2018-08-11T08:56:23.601Z,19.70
2018-08-11T09:16:14.330Z,19.90
2018-08-11T09:36:03.105Z,20.20
2018-08-11T09:38:32.493Z,20.40
2018-08-11T09:41:01.898Z,20.40
2018-08-11T09:43:30.360Z,20.40
2018-08-11T09:45:59.023Z,20.40
2018-08-11T09:48:27.438Z,20.50
2018-08-11T09:50:55.869Z,20.60
2018-08-11T09:53:26.847Z,20.60
2018-08-11T09:55:55.308Z,20.70
2018-08-11T09:58:23.786Z,20.90
2018-08-11T10:00:56.050Z,20.90
2018-08-11T10:03:25.366Z,20.90
2018-08-11T10:05:54.520Z,21.00
2018-08-11T10:08:22.986Z,21.00
2018-08-11T10:10:51.494Z,20.90
2018-08-11T10:30:41.194Z,21.20
2018-08-11T10:33:09.732Z,21.30
2018-08-11T10:35:38.246Z,21.20
2018-08-11T10:38:07.754Z,21.30
2018-08-11T10:40:36.626Z,21.40
2018-08-11T10:43:05.151Z,21.40
2018-08-11T11:02:55.761Z,21.90
2018-08-11T11:05:25.799Z,21.90
2018-08-11T11:07:54.308Z,22.00
2018-08-11T11:10:22.852Z,22.10
2018-08-11T11:12:51.420Z,22.20
2018-08-11T11:32:39.458Z,22.50
2018-08-11T11:35:07.937Z,22.50
2018-08-11T11:37:36.494Z,22.30
2018-08-11T11:40:06.101Z,22.20
2018-08-11T11:42:34.593Z,22.00
2018-08-11T11:45:03.325Z,21.90
2018-08-11T11:47:31.936Z,21.90
2018-08-11T11:50:01.618Z,22.00
2018-08-11T12:10:14.590Z,22.60
2018-08-11T12:12:43.242Z,22.70
2018-08-11T12:32:34.321Z,22.90
2018-08-11T12:52:24.865Z,23.10
2018-08-11T12:54:53.347Z,23.20
2018-08-11T13:14:42.912Z,23.70
2018-08-11T13:17:11.482Z,23.70
2018-08-11T13:19:40.676Z,23.90
2018-08-11T13:22:09.301Z,24.00
2018-08-11T13:24:38.422Z,24.20
2018-08-11T13:27:06.925Z,24.40
2018-08-11T13:29:36.071Z,24.40
2018-08-11T13:32:05.605Z,24.40
2018-08-11T13:34:34.742Z,24.40
2018-08-11T13:37:03.216Z,24.40
2018-08-11T13:39:31.910Z,24.80
2018-08-11T13:42:00.393Z,25.20
2018-08-11T13:44:29.473Z,25.30
2018-08-11T13:46:58.144Z,25.80
2018-08-11T13:49:27.363Z,25.90
2018-08-11T13:51:55.934Z,26.20
2018-08-11T13:54:25.069Z,26.50
2018-08-11T13:56:54.253Z,26.90
2018-08-11T13:59:22.706Z,26.90
2018-08-11T14:01:51.201Z,27.50
2018-08-11T14:04:21.050Z,27.70
2018-08-11T14:06:49.552Z,28.10
2018-08-11T14:09:18.840Z,28.10
2018-08-11T14:11:48.302Z,28.80
2018-08-11T14:14:17.850Z,29.00
2018-08-11T14:16:47.048Z,29.70
2018-08-11T14:21:44.734Z,30.80
2018-08-11T14:24:13.268Z,30.90
2018-08-11T14:44:03.310Z,32.00
2018-08-11T14:46:32.355Z,32.60
2018-08-11T14:49:01.473Z,32.60
2018-08-11T14:51:30.548Z,33.10
2018-08-11T14:53:59.042Z,33.30
2018-08-11T14:56:27.515Z,33.80
2018-08-11T14:58:56.800Z,33.60
2018-08-11T15:01:26.265Z,33.90
2018-08-11T15:03:54.714Z,33.80
2018-08-11T15:06:23.521Z,34.30
2018-08-11T15:08:52.517Z,34.00
2018-08-11T15:11:21.042Z,33.50
2018-08-11T15:13:49.567Z,32.00
2018-08-11T15:16:18.399Z,32.00
2018-08-11T15:18:46.879Z,31.60
2018-08-11T15:21:15.428Z,31.10
2018-08-11T15:23:43.981Z,32.00
2018-08-11T15:26:12.741Z,31.90
2018-08-11T15:28:41.275Z,32.30
2018-08-11T15:31:09.808Z,32.40
2018-08-11T15:33:39.747Z,32.70
2018-08-11T15:36:09.109Z,32.50
2018-08-11T15:38:38.231Z,33.30
2018-08-11T15:41:07.062Z,33.20
2018-08-11T15:43:36.658Z,34.00
2018-08-11T16:03:26.453Z,33.60
2018-08-11T16:05:55.095Z,32.40
2018-08-11T16:08:23.553Z,31.40
2018-08-11T16:10:52.109Z,30.20
2018-08-11T16:30:41.898Z,27.50
2018-08-11T16:33:10.340Z,27.40
2018-08-11T16:35:39.671Z,27.30
2018-08-11T16:55:29.733Z,26.40
2018-08-11T16:57:58.282Z,26.40
2018-08-11T17:17:50.235Z,25.60
2018-08-11T17:20:18.877Z,25.60
2018-08-11T17:22:48.081Z,25.50
2018-08-11T17:25:16.579Z,25.60
2018-08-11T17:45:05.578Z,24.90
2018-08-11T17:47:34.100Z,24.90
2018-08-11T17:50:04.760Z,24.80
2018-08-11T17:52:33.324Z,24.90
2018-08-11T17:55:02.567Z,24.80
2018-08-11T18:14:52.930Z,24.10
2018-08-11T18:17:21.608Z,23.90
2018-08-11T18:19:50.695Z,23.70
2018-08-11T18:22:19.044Z,23.70
2018-08-11T18:24:47.785Z,23.60
2018-08-11T18:27:16.478Z,23.40
2018-08-11T18:29:44.974Z,23.20
2018-08-11T18:32:13.596Z,23.10
2018-08-11T18:34:43.055Z,23.00
2018-08-11T18:37:11.697Z,22.90
2018-08-11T18:39:40.252Z,22.70
2018-08-11T18:42:08.810Z,22.60
2018-08-11T18:44:38.089Z,22.30
2018-08-11T19:04:29.817Z,21.70
2018-08-11T19:06:58.363Z,21.60
2018-08-11T19:09:26.907Z,21.50
2018-08-11T19:11:56.813Z,21.40
2018-08-11T19:14:25.317Z,21.30
2018-08-11T19:16:53.809Z,21.30
2018-08-11T19:19:22.444Z,21.00
2018-08-11T19:21:51.559Z,20.80
2018-08-11T19:24:20.146Z,20.70
2018-08-11T19:26:48.704Z,20.50
2018-08-11T19:29:17.148Z,20.50
2018-08-11T19:31:45.754Z,20.50
2018-08-11T19:34:14.330Z,20.40
2018-08-11T19:36:43.630Z,20.40
2018-08-11T19:39:13.114Z,20.40
2018-08-11T19:41:42.325Z,20.40
2018-08-11T19:44:10.940Z,20.30
2018-08-11T19:46:40.221Z,20.20
2018-08-11T19:49:08.673Z,20.20
2018-08-11T19:51:38.886Z,20.10
2018-08-11T19:54:07.312Z,20.00
2018-08-11T19:56:35.784Z,19.80
2018-08-11T19:59:04.332Z,19.90
2018-08-11T20:01:32.853Z,19.60
2018-08-11T20:04:01.581Z,19.60
2018-08-11T20:06:30.286Z,19.60
2018-08-11T20:08:59.582Z,19.50
2018-08-11T20:11:28.533Z,19.50
2018-08-11T20:13:56.987Z,19.50
2018-08-11T20:16:26.807Z,19.50
2018-08-11T20:18:55.411Z,19.50
2018-08-11T20:21:24.523Z,19.40
2018-08-11T20:23:52.991Z,19.20
2018-08-11T20:26:21.730Z,19.20
2018-08-11T20:28:50.345Z,19.10
2018-08-11T20:31:18.842Z,19.20
2018-08-11T20:33:47.544Z,19.10
2018-08-11T20:36:16.178Z,19.00
2018-08-11T20:38:44.693Z,18.90
2018-08-11T20:41:13.189Z,18.80
2018-08-11T20:43:41.775Z,18.70
2018-08-11T20:46:10.362Z,18.60
2018-08-11T20:48:40.755Z,18.60
2018-08-11T20:51:12.008Z,18.70
2018-08-11T20:53:42.261Z,18.70
2018-08-11T20:56:11.507Z,18.60
2018-08-11T20:58:40.210Z,18.40
2018-08-11T21:01:09.493Z,18.30
2018-08-11T21:03:37.955Z,18.20
2018-08-11T21:23:28.247Z,17.90
2018-08-11T21:25:57.708Z,18.00
2018-08-11T21:28:26.182Z,18.00
2018-08-11T21:30:55.515Z,18.10
2018-08-11T21:33:24.082Z,18.20
2018-08-11T21:53:13.725Z,18.10
2018-08-11T21:55:42.340Z,17.90
2018-08-11T21:58:11.873Z,17.90
2018-08-11T22:00:41.336Z,18.00
2018-08-11T22:03:12.206Z,17.90
2018-08-11T22:05:40.799Z,17.90
2018-08-11T22:08:10.078Z,17.90
2018-08-11T22:10:39.330Z,17.80
2018-08-11T22:13:07.922Z,17.80
2018-08-11T22:15:36.550Z,17.70
2018-08-11T22:18:05.923Z,17.70
2018-08-11T22:20:34.369Z,17.60
2018-08-11T22:23:02.962Z,17.60
2018-08-11T22:25:31.973Z,17.50
2018-08-11T22:28:01.938Z,17.50
2018-08-11T22:30:30.412Z,17.50
2018-08-11T22:32:59.055Z,17.50
2018-08-11T22:35:27.559Z,17.50
2018-08-11T22:37:56.160Z,17.40
2018-08-11T22:40:24.703Z,17.30
2018-08-11T22:42:53.410Z,17.30
2018-08-11T22:45:21.953Z,17.20
2018-08-11T22:47:50.429Z,17.30
2018-08-11T22:50:19.667Z,17.20
2018-08-11T22:52:48.141Z,17.00
2018-08-11T22:55:16.786Z,17.00
2018-08-11T22:57:46.881Z,16.90
2018-08-11T23:00:18.976Z,16.90
2018-08-11T23:02:48.558Z,16.80
2018-08-11T23:05:19.144Z,16.80
2018-08-11T23:07:47.931Z,16.90
2018-08-11T23:10:17.230Z,16.90
2018-08-11T23:12:46.329Z,16.80
2018-08-11T23:15:18.992Z,16.70
2018-08-11T23:35:08.598Z,16.00
2018-08-11T23:37:37.387Z,15.80
2018-08-11T23:40:06.571Z,15.60
2018-08-11T23:42:35.287Z,15.50
2018-08-11T23:45:04.139Z,15.40
2018-08-11T23:47:34.318Z,15.50
2018-08-11T23:50:02.829Z,15.70
2018-08-11T23:52:31.346Z,15.80
2018-08-11T23:54:59.862Z,15.80
2018-08-11T23:57:28.501Z,15.80
2018-08-11T23:59:57.237Z,15.60
